Latest Weather Observations for Warrnambool

IDV60801

Issued at 10:05 pm EST Thursday 24 July 2014 (issued every 30 minutes, with the page automatically refreshed every 10 minutes)

About weather observations | Map of weather stations | Latest weather observations for VIC | Other Formats
Station Details ID: 090186 Name: WARRNAMBOOL AIRPORT NDB Lat: -38.29 Lon: 142.45 Height: 70.8 m
Data from the previous 72 hours. | See also: Recent months at Warrnambool
Date/Time
EST
Temp
°C
App
Temp
°C
Dew
Point
Rel
Hum
%
Delta-T
°C
Wind Press
QNH
hPa
Press
MSL
hPa
Rain
since 9 am
mm
Dir
 
Spd
km/h
Gust
km/h
Spd
kts
Gust
kts
24/10:00pm 10.4 6.6 9.0 91 0.7 NE 19 26 10 14 1010.9 1011.0 2.8
24/09:30pm 10.4 6.5 8.8 90 0.8 NE 19 24 10 13 1010.8 - 2.8
24/09:00pm 10.6 6.6 9.0 90 0.8 NE 20 26 11 14 1011.0 1011.1 2.8
24/08:30pm 10.5 7.0 8.8 89 0.8 NE 17 22 9 12 1011.1 - 2.8
24/08:00pm 10.7 7.2 8.6 87 1.0 NE 17 26 9 14 1010.9 1011.0 2.8
24/07:30pm 10.9 7.0 8.7 86 1.1 NE 19 24 10 13 1010.7 - 2.8
24/07:00pm 11.2 7.7 8.9 86 1.1 NE 17 22 9 12 1010.5 1010.6 2.8
24/06:30pm 11.3 7.9 9.0 86 1.1 ENE 17 24 9 13 1010.3 - 2.8
24/06:00pm 11.3 8.3 9.4 88 1.0 ENE 15 20 8 11 1010.1 1010.2 2.8
24/05:30pm 11.5 8.7 10.1 91 0.7 ENE 15 20 8 11 1010.0 - 2.8
24/05:00pm 11.4 7.9 10.1 92 0.7 ENE 19 26 10 14 1009.9 1010.0 2.8
24/04:30pm 11.3 8.1 10.0 92 0.7 ENE 17 24 9 13 1009.9 - 2.8
24/04:00pm 11.1 7.5 9.9 92 0.6 ENE 19 28 10 15 1009.9 1010.0 2.8
24/03:30pm 11.3 7.6 10.2 93 0.6 ENE 20 30 11 16 1009.7 - 2.8
24/03:00pm 11.0 6.9 10.1 94 0.5 ENE 22 32 12 17 1009.6 1009.7 2.8
24/02:30pm 10.9 7.3 10.0 94 0.5 ENE 19 28 10 15 1009.8 - 2.8
24/02:00pm 11.0 7.3 10.1 94 0.5 ENE 20 28 11 15 1010.1 1010.2 2.8
24/01:30pm 11.0 7.0 10.5 97 0.3 ENE 22 33 12 18 1010.5 - 2.8
24/01:00pm 10.7 7.1 10.5 99 0.1 ENE 20 32 11 17 1011.2 1011.3 2.8
24/12:30pm 10.2 5.7 10.0 99 0.1 ENE 24 35 13 19 1011.6 - 2.8
24/12:00pm 9.6 5.3 9.5 99 0.0 E 22 32 12 17 1012.3 1012.5 2.8
24/11:30am 9.2 5.2 9.1 99 0.0 ENE 20 30 11 16 1012.9 - 2.6
24/11:00am 8.8 5.3 8.7 99 0.0 ENE 17 24 9 13 1013.6 1013.7 2.4
24/10:30am 8.4 4.4 8.3 99 0.0 NE 19 28 10 15 1014.1 - 1.0
24/10:00am 8.1 4.0 8.0 99 0.0 NE 19 24 10 13 1014.3 1014.4 0.8
24/09:30am 8.0 4.3 7.9 99 0.0 NE 17 24 9 13 1014.4 - 0.2
24/09:00am 7.9 4.2 7.8 99 0.0 NE 17 24 9 13 1014.4 1014.5 2.6
24/08:30am 8.1 5.2 8.0 99 0.0 ENE 13 20 7 11 1014.1 - 2.0
24/08:00am 8.0 5.0 7.9 99 0.0 NE 13 20 7 11 1014.2 1014.3 1.8
24/07:30am 7.7 4.3 7.6 99 0.0 ENE 15 20 8 11 1014.2 - 1.4
24/07:00am 7.4 4.7 7.3 99 0.0 ENE 11 15 6 8 1014.2 1014.3 1.2
24/06:30am 7.5 4.4 7.2 98 0.1 NE 13 17 7 9 1014.1 - 1.0
24/06:00am 7.5 4.4 7.2 98 0.1 ENE 13 15 7 8 1014.0 1014.1 1.0
24/05:30am 7.7 4.2 7.3 97 0.2 NE 15 20 8 11 1014.2 - 1.0
24/05:00am 7.8 3.5 7.2 96 0.3 NE 19 24 10 13 1014.4 1014.5 1.0
24/04:30am 7.7 3.1 6.6 93 0.5 NNE 20 26 11 14 1014.6 - 0.6
24/04:00am 7.7 4.0 6.2 90 0.7 NE 15 20 8 11 1014.4 1014.5 0.0
24/03:30am 7.7 3.6 6.2 90 0.7 NE 17 20 9 11 1014.4 - 0.0
24/03:00am 7.8 3.3 6.3 90 0.7 NE 19 26 10 14 1014.8 1014.9 0.0
24/02:30am 7.6 3.5 6.2 91 0.6 NE 17 24 9 13 1015.3 - 0.0
24/02:00am 6.9 2.3 5.5 91 0.6 NNE 19 24 10 13 1015.6 1015.7 0.0
24/01:30am 6.5 1.8 5.1 91 0.6 NE 19 24 10 13 1015.7 - 0.0
24/01:00am 6.4 1.6 4.9 90 0.7 NE 19 22 10 12 1015.8 1015.9 0.0
24/12:30am 6.3 1.9 4.9 91 0.6 NE 17 24 9 13 1015.8 - 0.0
24/12:00am 6.1 2.1 4.7 91 0.6 NE 15 22 8 12 1016.2 1016.3 0.0
 
Date/Time
EST
Temp
°C
App
Temp
°C
Dew
Point
Rel
Hum
%
Delta-T
°C
Wind Press
QNH
hPa
Press
MSL
hPa
Rain
since 9 am
mm
Dir
 
Spd
km/h
Gust
km/h
Spd
kts
Gust
kts
23/11:30pm 6.2 2.2 4.8 91 0.6 NE 15 20 8 11 1016.5 - 0.0
23/11:00pm 6.1 2.1 4.7 91 0.6 NE 15 19 8 10 1016.7 1016.8 0.0
23/10:30pm 6.0 1.6 4.6 91 0.6 NE 17 20 9 11 1017.1 - 0.0
23/10:00pm 5.7 1.6 4.2 90 0.6 NE 15 17 8 9 1017.4 1017.5 0.0
23/09:30pm 6.4 2.0 4.6 88 0.8 NE 17 22 9 12 1017.6 - 0.0
23/09:00pm 6.9 2.5 4.9 87 0.9 NNE 17 22 9 12 1017.9 1018.0 0.0
23/08:30pm 6.9 2.1 4.7 86 1.0 NNE 19 24 10 13 1017.9 - 0.0
23/08:00pm 7.1 3.1 4.9 86 1.0 NE 15 20 8 11 1017.8 1017.9 0.0
23/07:30pm 6.7 2.7 4.9 88 0.8 NE 15 17 8 9 1018.0 - 0.0
23/07:00pm 6.6 2.2 4.8 88 0.8 NNE 17 20 9 11 1018.3 1018.4 0.0
23/06:30pm 6.8 4.0 5.0 88 0.8 NNE 9 13 5 7 1018.1 - 0.0
23/06:00pm 7.0 3.4 4.8 86 1.0 NNE 13 17 7 9 1018.1 1018.2 0.0
23/05:30pm 8.1 4.3 5.6 84 1.1 NNE 15 20 8 11 1018.3 - 0.0
23/05:00pm 9.2 5.5 6.3 82 1.3 NNE 15 20 8 11 1018.3 1018.4 0.0
23/04:30pm 9.5 5.4 6.2 80 1.5 NNE 17 22 9 12 1018.2 - 0.0
23/04:00pm 9.6 5.5 6.1 79 1.6 NNE 17 20 9 11 1018.2 1018.3 0.0
23/03:30pm 10.4 6.0 6.7 78 1.7 NNE 19 24 10 13 1018.4 - 0.0
23/03:00pm 11.0 6.1 6.9 76 1.9 NNE 22 28 12 15 1018.2 1018.3 0.0
23/02:30pm 10.8 6.5 7.7 81 1.5 NNE 20 26 11 14 1018.5 - 0.0
23/02:00pm 10.1 6.0 8.0 87 1.0 NNE 19 24 10 13 1018.9 1019.0 0.0
23/01:30pm 9.3 5.0 7.9 91 0.7 NNE 20 24 11 13 1019.0 - 0.0
23/01:00pm 8.6 4.0 8.0 96 0.3 NNE 22 28 12 15 1019.6 1019.7 0.0
23/12:30pm 8.0 3.3 7.9 99 0.0 NNE 22 28 12 15 1020.4 - 0.0
23/12:00pm 6.8 3.9 6.7 99 0.0 NE 11 15 6 8 1020.9 1021.0 0.0
23/11:30am 5.7 2.2 5.6 99 0.0 NE 13 15 7 8 1021.6 - 0.0
23/11:00am 5.5 2.0 5.5 100 0.0 NE 13 17 7 9 1022.0 1022.1 0.0
23/10:30am 4.9 0.9 4.8 99 0.0 NE 15 19 8 10 1022.4 - 0.0
23/10:00am 3.8 0.3 3.7 99 0.0 NE 11 15 6 8 1022.8 1022.9 0.0
23/09:30am 2.7 -1.3 2.6 99 0.0 NE 13 17 7 9 1022.8 - 0.0
23/09:00am 1.6 -1.9 1.5 99 0.0 NE 9 13 5 7 1022.8 1022.9 0.2
23/08:30am 0.7 -4.0 0.6 99 0.0 NNE 15 17 8 9 1022.8 - 0.2
23/08:00am -0.2 -4.3 -0.3 99 0.0 NNE 11 15 6 8 1022.7 1022.8 0.2
23/07:30am -0.6 -5.2 -0.7 99 0.0 NNE 13 17 7 9 1022.7 - 0.2
23/07:00am -0.3 -4.8 -0.4 99 0.0 NNE 13 15 7 8 1022.6 1022.7 0.0
23/06:30am 0.1 -4.4 0.0 99 0.0 NNE 13 17 7 9 1022.6 - 0.0
23/06:00am 0.2 -3.5 0.1 99 0.0 NE 9 13 5 7 1022.4 1022.5 0.0
23/05:30am 0.2 -3.5 0.1 99 0.0 NNE 9 13 5 7 1022.6 - 0.0
23/05:00am 0.3 -4.5 0.2 99 0.0 NNE 15 17 8 9 1022.7 1022.8 0.0
23/04:30am 0.9 -3.4 0.8 99 0.0 NNE 13 17 7 9 1022.5 - 0.0
23/04:00am 1.6 -3.0 1.5 99 0.0 NNE 15 17 8 9 1022.6 1022.7 0.0
23/03:30am 1.6 -2.6 1.5 99 0.0 NNE 13 15 7 8 1022.8 - 0.0
23/03:00am 2.5 -2.3 2.4 99 0.0 NNE 17 19 9 10 1023.2 1023.3 0.0
23/02:30am 3.0 -1.0 2.9 99 0.0 N 13 17 7 9 1023.3 - 0.0
23/02:00am 2.7 -1.7 2.6 99 0.0 NNE 15 17 8 9 1023.3 1023.4 0.0
23/01:30am 3.2 -1.1 3.1 99 0.0 NNE 15 17 8 9 1023.3 - 0.0
23/01:00am 3.5 -0.8 3.4 99 0.0 NNE 15 17 8 9 1023.4 1023.5 0.0
23/12:30am 3.4 -0.9 3.3 99 0.0 NNE 15 17 8 9 1023.8 - 0.0
23/12:00am 3.2 -1.5 3.1 99 0.0 NNE 17 17 9 9 1024.2 1024.4 0.0
 
Date/Time
EST
Temp
°C
App
Temp
°C
Dew
Point
Rel
Hum
%
Delta-T
°C
Wind Press
QNH
hPa
Press
MSL
hPa
Rain
since 9 am
mm
Dir
 
Spd
km/h
Gust
km/h
Spd
kts
Gust
kts
22/11:30pm 2.1 -2.1 1.7 97 0.2 N 13 15 7 8 1024.5 - 0.0
22/11:00pm 1.9 -2.0 1.3 96 0.2 N 11 13 6 7 1024.7 1024.9 0.0
22/10:30pm 2.5 -1.3 1.9 96 0.2 NNE 11 13 6 7 1024.5 - 0.0
22/10:00pm 2.5 -1.0 1.5 93 0.4 NNE 9 11 5 6 1024.5 1024.7 0.0
22/09:30pm 4.1 0.9 3.1 93 0.4 NE 9 11 5 6 1024.2 - 0.0
22/09:00pm 3.7 0.0 2.4 91 0.5 NE 11 13 6 7 1024.2 1024.4 0.0
22/08:30pm 4.2 0.9 2.6 89 0.6 NE 9 11 5 6 1024.3 - 0.0
22/08:00pm 5.7 3.2 3.9 88 0.8 NE 6 9 3 5 1024.3 1024.5 0.0
22/07:30pm 5.6 3.0 3.1 84 1.0 NE 6 7 3 4 1024.3 - 0.0
22/07:00pm 6.5 3.9 3.1 79 1.4 NE 6 7 3 4 1024.2 1024.4 0.0
22/06:30pm 7.4 4.8 3.1 74 1.8 ENE 6 7 3 4 1024.1 - 0.0
22/06:00pm 8.8 7.4 3.8 71 2.2 CALM 0 0 0 0 1023.9 1024.1 0.0
22/05:30pm 10.1 8.7 3.6 64 2.9 CALM 0 0 0 0 1023.8 - 0.0
22/05:00pm 11.4 10.1 3.9 60 3.3 CALM 0 0 0 0 1023.9 1024.1 0.0
22/04:30pm 12.2 11.1 4.9 61 3.4 CALM 0 0 0 0 1023.9 - 0.0
22/04:00pm 12.3 9.8 5.0 61 3.4 NNE 7 11 4 6 1023.9 1024.1 0.0
22/03:30pm 12.5 9.8 5.7 63 3.2 NE 9 11 5 6 1023.8 - 0.0
22/03:00pm 12.8 11.0 5.2 60 3.5 NE 4 11 2 6 1023.9 1024.1 0.0
22/02:30pm 12.6 9.9 3.8 55 4.0 N 7 11 4 6 1023.9 - 0.0
22/02:00pm 12.5 10.1 5.2 61 3.4 NE 7 11 4 6 1024.1 1024.3 0.0
22/01:30pm 12.5 10.3 6.1 65 3.0 NNE 7 11 4 6 1024.5 - 0.0
22/01:00pm 11.9 9.3 6.0 67 2.8 NNE 9 13 5 7 1025.0 1025.2 0.0
22/12:30pm 11.9 9.5 7.0 72 2.4 NNE 9 13 5 7 1025.5 - 0.0
22/12:00pm 11.4 9.3 8.4 82 1.5 N 9 15 5 8 1025.9 1026.1 0.0
22/11:30am 10.2 7.9 9.1 93 0.5 N 11 15 6 8 1026.3 - 0.0
22/11:00am 9.9 7.8 9.8 99 0.1 NNE 11 15 6 8 1026.6 1026.8 0.0
22/10:30am 8.3 5.8 8.2 99 0.0 NNE 11 13 6 7 1026.7 - 0.0
22/10:00am 6.8 3.9 6.7 99 0.0 N 11 11 6 6 1026.7 1026.9 0.0
22/09:30am 6.1 3.1 6.0 99 0.0 N 11 15 6 8 1026.6 - 0.0
22/09:00am 4.3 1.3 4.2 99 0.0 N 9 13 5 7 1026.6 1026.8 0.0
22/08:30am 2.9 -1.5 2.8 99 0.0 N 15 19 8 10 1026.2 - 0.0
22/08:00am 1.1 -2.8 1.0 99 0.0 N 11 13 6 7 1025.9 1026.1 0.0
22/07:30am 0.9 -3.1 0.8 99 0.0 N 11 15 6 8 1026.0 - 0.0
22/07:00am 1.1 -2.4 1.0 99 0.0 NNE 9 13 5 7 1025.6 1025.8 0.0
22/06:30am 0.8 -3.5 0.7 99 0.0 N 13 13 7 7 1025.3 - 0.0
22/06:00am 1.3 -2.6 1.2 99 0.0 NNE 11 13 6 7 1025.0 1025.2 0.0
22/05:30am 1.3 -3.0 1.2 99 0.0 NNE 13 13 7 7 1024.9 - 0.0
22/05:00am 1.5 -2.0 1.4 99 0.0 NNE 9 13 5 7 1024.7 1024.9 0.0
22/04:30am 1.9 -1.1 1.8 99 0.0 N 7 9 4 5 1024.5 - 0.0
22/04:00am 1.8 -2.4 1.7 99 0.0 N 13 13 7 7 1024.4 1024.6 0.0
22/03:30am 2.2 -1.2 2.1 99 0.0 N 9 11 5 6 1024.3 - 0.0
22/03:00am 2.2 -1.5 2.1 99 0.0 N 11 13 6 7 1024.6 1024.8 0.0
22/02:30am 2.4 -1.3 2.3 99 0.0 N 11 13 6 7 1024.6 - 0.0
22/02:00am 3.4 0.2 3.3 99 0.0 N 9 11 5 6 1024.7 1024.9 0.0
22/01:30am 4.2 0.8 4.1 99 0.0 N 11 13 6 7 1024.8 - 0.0
22/01:00am 4.1 0.7 4.0 99 0.0 N 11 13 6 7 1025.1 1025.3 0.0
22/12:30am 4.7 1.8 4.6 99 0.0 N 9 11 5 6 1025.1 - 0.0
22/12:00am 4.3 0.9 4.2 99 0.0 NNE 11 13 6 7 1025.0 1025.2 0.0
 
Date/Time
EST
Temp
°C
App
Temp
°C
Dew
Point
Rel
Hum
%
Delta-T
°C
Wind Press
QNH
hPa
Press
MSL
hPa
Rain
since 9 am
mm
Dir
 
Spd
km/h
Gust
km/h
Spd
kts
Gust
kts
21/11:30pm 3.4 0.6 3.0 97 0.2 NNE 7 9 4 5 1025.0 - 0.0
21/11:00pm 4.6 2.6 4.3 98 0.1 NNE 4 6 2 3 1025.0 1025.2 0.0
21/10:30pm 5.2 2.3 4.9 98 0.1 NNE 9 11 5 6 1024.9 - 0.0

Other Formats:

Comma delimited format used in spreadsheet applications
http://www.bom.gov.au/fwo/IDV60801/IDV60801.94837.axf

JavaScript Object Notation format (JSON) in row-major order
http://www.bom.gov.au/fwo/IDV60801/IDV60801.94837.json